createdAt,value
2022-08-24T00:01:22.118Z,91.18
2022-08-24T00:03:49.746Z,90.96
2022-08-24T00:06:23.811Z,91.28
2022-08-24T00:08:52.788Z,91.38
2022-08-24T00:11:20.657Z,91.65
2022-08-24T00:13:48.797Z,91.59
2022-08-24T00:16:17.095Z,91.61
2022-08-24T00:18:45.018Z,91.48
2022-08-24T00:21:13.029Z,91.46
2022-08-24T00:23:41.969Z,91.17
2022-08-24T00:26:09.419Z,91.30
2022-08-24T00:28:37.459Z,91.22
2022-08-24T00:31:07.331Z,91.36
2022-08-24T00:33:35.507Z,91.46
2022-08-24T00:36:04.875Z,91.75
2022-08-24T00:38:33.985Z,91.70
2022-08-24T00:41:02.190Z,91.96
2022-08-24T00:43:29.576Z,92.11
2022-08-24T00:46:21.398Z,92.17
2022-08-24T00:48:55.607Z,92.33
2022-08-24T00:51:42.493Z,92.26
2022-08-24T00:54:14.025Z,92.66
2022-08-24T00:57:02.860Z,92.58
2022-08-24T00:59:34.866Z,92.50
2022-08-24T01:02:15.586Z,92.76
2022-08-24T01:04:50.119Z,92.65
2022-08-24T01:07:17.381Z,92.52
2022-08-24T01:09:44.420Z,92.65
2022-08-24T01:12:11.589Z,92.63
2022-08-24T01:14:38.991Z,92.49
2022-08-24T01:17:25.400Z,92.50
2022-08-24T01:19:55.833Z,92.54
2022-08-24T01:22:25.611Z,92.89
2022-08-24T01:24:52.816Z,92.78
2022-08-24T01:27:22.920Z,92.55
2022-08-24T01:29:57.752Z,92.49
2022-08-24T01:32:28.138Z,92.46
2022-08-24T01:34:56.854Z,92.83
2022-08-24T01:37:24.683Z,92.84
2022-08-24T01:39:55.988Z,92.92
2022-08-24T01:42:23.693Z,92.84
2022-08-24T01:44:50.779Z,92.55
2022-08-24T01:47:18.241Z,92.58
2022-08-24T01:49:48.490Z,92.48
2022-08-24T01:52:23.598Z,92.34
2022-08-24T01:54:52.380Z,92.23
2022-08-24T01:57:20.590Z,92.15
2022-08-24T01:59:50.635Z,92.10
2022-08-24T02:02:27.559Z,91.94
2022-08-24T02:04:55.489Z,91.96
2022-08-24T02:07:23.383Z,91.61
2022-08-24T02:09:51.145Z,91.64
2022-08-24T02:12:19.864Z,90.87
2022-08-24T02:14:47.672Z,91.46
2022-08-24T02:17:15.143Z,91.39
2022-08-24T02:19:43.444Z,91.30
2022-08-24T02:22:10.961Z,91.23
2022-08-24T02:24:39.300Z,91.29
2022-08-24T02:27:07.229Z,91.25
2022-08-24T02:29:35.334Z,91.44
2022-08-24T02:32:03.342Z,91.36
2022-08-24T02:34:30.485Z,91.64
2022-08-24T02:36:58.171Z,91.47
2022-08-24T02:39:25.280Z,91.50
2022-08-24T02:41:53.444Z,91.26
2022-08-24T02:44:20.802Z,91.34
2022-08-24T02:46:48.661Z,91.41
2022-08-24T02:49:16.961Z,91.46
2022-08-24T02:51:46.235Z,91.32
2022-08-24T02:54:19.664Z,91.39
2022-08-24T02:56:49.800Z,91.52
2022-08-24T02:59:17.582Z,92.06
2022-08-24T03:01:45.875Z,92.04
2022-08-24T03:04:13.980Z,91.96
2022-08-24T03:06:41.753Z,91.74
2022-08-24T03:09:09.350Z,92.11
2022-08-24T03:11:37.284Z,92.18
2022-08-24T03:14:06.012Z,91.67
2022-08-24T03:16:33.203Z,92.09
2022-08-24T03:19:01.841Z,92.25
2022-08-24T03:21:33.623Z,92.39
2022-08-24T03:24:01.133Z,92.10
2022-08-24T03:26:28.419Z,91.88
2022-08-24T03:28:55.684Z,91.83
2022-08-24T03:31:23.281Z,91.94
2022-08-24T03:33:50.792Z,92.16
2022-08-24T03:36:19.022Z,92.27
2022-08-24T03:38:46.330Z,92.50
2022-08-24T03:41:13.755Z,92.41
2022-08-24T03:43:47.374Z,92.76
2022-08-24T03:46:21.725Z,92.73
2022-08-24T03:48:49.821Z,93.09
2022-08-24T03:51:23.599Z,93.14
2022-08-24T03:53:52.376Z,93.30
2022-08-24T03:56:22.545Z,93.40
2022-08-24T03:58:49.941Z,93.62
2022-08-24T04:01:17.945Z,94.04
2022-08-24T04:03:47.225Z,93.82
2022-08-24T04:06:17.270Z,94.08
2022-08-24T04:08:45.230Z,94.09
2022-08-24T04:11:15.555Z,94.22
2022-08-24T04:13:45.234Z,94.16
2022-08-24T04:16:15.352Z,94.23
2022-08-24T04:18:43.598Z,94.34
2022-08-24T04:21:23.300Z,94.10
2022-08-24T04:23:55.190Z,94.03
2022-08-24T04:26:44.085Z,94.15
2022-08-24T04:29:17.921Z,94.14
2022-08-24T04:31:50.075Z,94.24
2022-08-24T04:34:18.683Z,94.32
2022-08-24T04:36:46.929Z,94.36
2022-08-24T04:39:14.846Z,94.37
2022-08-24T04:42:14.580Z,94.30
2022-08-24T04:44:42.916Z,94.15
2022-08-24T04:47:10.065Z,94.26
2022-08-24T04:49:39.146Z,94.26
2022-08-24T04:52:08.438Z,94.30
2022-08-24T04:54:35.663Z,94.28
2022-08-24T04:57:08.522Z,94.38
2022-08-24T04:59:36.569Z,94.33
2022-08-24T05:02:03.850Z,94.13
2022-08-24T05:04:31.275Z,94.22
2022-08-24T05:06:59.006Z,94.22
2022-08-24T05:09:27.244Z,94.27
2022-08-24T05:11:55.825Z,94.27
2022-08-24T05:14:29.033Z,94.33
2022-08-24T05:16:56.799Z,94.52
2022-08-24T05:19:25.024Z,94.75
2022-08-24T05:21:52.870Z,94.92
2022-08-24T05:24:20.405Z,95.12
2022-08-24T05:26:48.149Z,95.07
2022-08-24T05:29:17.323Z,95.13
2022-08-24T05:31:48.633Z,95.36
2022-08-24T05:34:16.554Z,95.21
2022-08-24T05:36:44.151Z,94.94
2022-08-24T05:39:19.650Z,94.99
2022-08-24T05:41:54.349Z,95.59
2022-08-24T05:44:31.055Z,95.28
2022-08-24T05:47:02.993Z,94.89
2022-08-24T05:49:31.385Z,94.95
2022-08-24T05:51:59.161Z,95.17
2022-08-24T05:54:27.155Z,95.34
2022-08-24T05:57:02.339Z,94.68
2022-08-24T05:59:31.371Z,94.84
2022-08-24T06:02:02.452Z,94.97
2022-08-24T06:04:29.935Z,94.50
2022-08-24T06:06:57.035Z,94.34
2022-08-24T06:09:24.513Z,94.18
2022-08-24T06:11:52.840Z,94.21
2022-08-24T06:14:22.862Z,94.00
2022-08-24T06:16:57.525Z,94.13
2022-08-24T06:19:27.122Z,94.36
2022-08-24T06:21:55.901Z,94.54
2022-08-24T06:24:45.733Z,94.83
2022-08-24T06:27:24.050Z,94.55
2022-08-24T06:30:00.027Z,94.86
2022-08-24T06:32:50.508Z,95.04
2022-08-24T06:35:47.861Z,94.93
2022-08-24T06:38:15.468Z,94.92
2022-08-24T06:40:45.743Z,94.83
2022-08-24T06:43:13.924Z,94.70
2022-08-24T06:45:55.093Z,94.70
2022-08-24T06:48:28.284Z,94.53
2022-08-24T06:50:55.552Z,94.67
2022-08-24T06:53:22.729Z,94.41
2022-08-24T06:55:55.896Z,94.14
2022-08-24T06:58:24.366Z,93.16
2022-08-24T07:00:51.736Z,92.85
2022-08-24T07:03:21.250Z,92.21
2022-08-24T07:05:58.053Z,92.22
2022-08-24T07:08:41.960Z,91.56
2022-08-24T07:11:10.222Z,91.39
2022-08-24T07:13:38.605Z,90.94
2022-08-24T07:16:06.172Z,90.42
2022-08-24T07:18:36.049Z,90.25
2022-08-24T07:21:04.590Z,89.78
2022-08-24T07:23:42.274Z,89.16
2022-08-24T07:26:21.724Z,88.13
2022-08-24T07:28:53.944Z,86.71
2022-08-24T07:31:22.530Z,86.34
2022-08-24T07:34:09.728Z,85.90
2022-08-24T07:36:44.350Z,85.52
2022-08-24T07:39:12.484Z,84.69
2022-08-24T07:42:02.657Z,83.06
2022-08-24T07:44:31.467Z,82.49
2022-08-24T07:47:04.096Z,81.65
2022-08-24T07:49:45.803Z,79.63
2022-08-24T07:52:13.648Z,79.53
2022-08-24T07:54:41.316Z,79.96
2022-08-24T07:57:08.944Z,80.12
2022-08-24T07:59:37.828Z,79.38
2022-08-24T08:02:05.828Z,78.63
2022-08-24T08:04:33.517Z,77.32
2022-08-24T08:07:03.635Z,76.56
2022-08-24T08:09:33.881Z,75.03
2022-08-24T08:12:01.074Z,74.89
2022-08-24T08:14:28.163Z,74.02
2022-08-24T08:16:56.164Z,72.70
2022-08-24T08:19:23.653Z,72.88
2022-08-24T08:22:11.693Z,73.20
2022-08-24T08:25:19.440Z,72.71
2022-08-24T08:27:47.426Z,72.17
2022-08-24T08:30:15.866Z,71.94
2022-08-24T08:32:43.491Z,71.05
2022-08-24T08:35:11.111Z,71.29
2022-08-24T08:37:39.667Z,69.73
2022-08-24T08:40:13.466Z,69.43
2022-08-24T08:43:09.978Z,68.83
2022-08-24T08:46:29.918Z,68.45
2022-08-24T08:49:54.868Z,66.44
2022-08-24T08:52:37.152Z,66.09
2022-08-24T08:55:23.832Z,66.27
2022-08-24T08:58:17.611Z,66.26
2022-08-24T09:00:50.051Z,65.71
2022-08-24T09:03:37.266Z,66.10
2022-08-24T09:07:05.325Z,66.82
2022-08-24T09:09:50.381Z,65.61
2022-08-24T09:12:36.287Z,65.71
2022-08-24T09:15:30.820Z,63.71
2022-08-24T09:18:10.857Z,62.09
2022-08-24T09:20:37.826Z,62.84
2022-08-24T09:23:36.911Z,63.08
2022-08-24T09:26:18.912Z,63.17
2022-08-24T09:28:49.503Z,62.53
2022-08-24T09:31:23.064Z,62.15
2022-08-24T09:34:02.820Z,62.62
2022-08-24T09:36:52.941Z,61.19
2022-08-24T09:39:19.984Z,61.10
2022-08-24T09:42:22.820Z,60.20
2022-08-24T09:44:52.838Z,59.25
2022-08-24T09:47:32.645Z,59.94
2022-08-24T09:50:33.630Z,60.19
2022-08-24T09:53:25.431Z,59.78
2022-08-24T09:56:14.359Z,58.52
2022-08-24T09:58:47.129Z,58.96
2022-08-24T10:01:28.113Z,58.80
2022-08-24T10:04:03.125Z,58.75
2022-08-24T10:07:05.806Z,59.31
2022-08-24T10:09:53.221Z,57.97
2022-08-24T10:12:32.792Z,57.99
2022-08-24T10:15:35.690Z,57.26
2022-08-24T10:18:47.425Z,58.06
2022-08-24T10:21:46.841Z,59.30
2022-08-24T10:24:37.471Z,60.02
2022-08-24T10:27:09.765Z,59.41
2022-08-24T10:29:56.296Z,58.70
2022-08-24T10:32:43.702Z,59.01
2022-08-24T10:35:18.125Z,59.11
2022-08-24T10:38:21.830Z,58.03
2022-08-24T10:41:01.002Z,58.60
2022-08-24T10:44:19.085Z,58.18
2022-08-24T10:46:58.386Z,58.82
2022-08-24T10:49:48.866Z,59.16
2022-08-24T10:52:34.181Z,59.84
2022-08-24T10:55:22.865Z,60.35
2022-08-24T10:57:52.803Z,61.14
2022-08-24T11:00:22.811Z,60.18
2022-08-24T11:03:05.179Z,58.62
2022-08-24T11:05:39.927Z,58.80
2022-08-24T11:08:07.454Z,57.96
2022-08-24T11:10:37.472Z,57.42
2022-08-24T11:13:24.164Z,57.37
2022-08-24T11:16:00.366Z,55.33
2022-08-24T11:18:47.133Z,55.27
2022-08-24T11:21:33.394Z,54.68
2022-08-24T11:24:26.922Z,54.92
2022-08-24T11:27:24.866Z,54.63
2022-08-24T11:29:52.226Z,53.40
2022-08-24T11:32:29.261Z,54.19
2022-08-24T11:35:03.030Z,54.39
2022-08-24T11:37:36.550Z,53.75
2022-08-24T11:40:06.694Z,55.08
2022-08-24T11:43:02.380Z,56.06
2022-08-24T11:46:04.116Z,55.84
2022-08-24T11:48:49.725Z,56.26
2022-08-24T11:51:22.447Z,55.82
2022-08-24T11:53:59.931Z,54.99
2022-08-24T11:56:42.238Z,54.90
2022-08-24T11:59:24.046Z,55.87
2022-08-24T12:01:59.196Z,57.38
2022-08-24T12:04:35.549Z,56.60
2022-08-24T12:07:15.348Z,55.32
2022-08-24T12:10:01.987Z,55.46
2022-08-24T12:12:41.074Z,55.10
2022-08-24T12:15:23.475Z,55.49
2022-08-24T12:18:05.498Z,57.61
2022-08-24T12:20:41.843Z,58.62
2022-08-24T12:23:22.689Z,57.10
2022-08-24T12:26:03.939Z,56.56
2022-08-24T12:28:44.732Z,57.08
2022-08-24T12:31:22.186Z,56.16
2022-08-24T12:33:54.624Z,57.01
2022-08-24T12:36:31.168Z,56.56
2022-08-24T12:39:14.871Z,57.26
2022-08-24T12:41:55.211Z,57.07
2022-08-24T12:44:31.635Z,56.54
2022-08-24T12:46:59.311Z,56.28
2022-08-24T12:49:56.398Z,55.16
2022-08-24T12:52:44.868Z,55.29
2022-08-24T12:55:41.030Z,56.16
2022-08-24T12:58:34.519Z,57.03
2022-08-24T13:01:07.074Z,57.65
2022-08-24T13:03:41.663Z,57.81
2022-08-24T13:06:17.597Z,57.35
2022-08-24T13:08:49.246Z,56.85
2022-08-24T13:11:17.176Z,56.02
2022-08-24T13:14:18.633Z,55.80
2022-08-24T13:16:56.733Z,56.25
2022-08-24T13:19:23.810Z,56.30
2022-08-24T13:21:55.018Z,56.14
2022-08-24T13:24:31.114Z,55.96
2022-08-24T13:27:13.363Z,56.31
2022-08-24T13:29:42.484Z,56.17
2022-08-24T13:32:18.654Z,55.70
2022-08-24T13:34:51.277Z,55.32
2022-08-24T13:37:25.134Z,56.46
2022-08-24T13:40:14.539Z,56.82
2022-08-24T13:42:52.564Z,56.51
2022-08-24T13:45:34.561Z,56.27
2022-08-24T13:48:07.638Z,57.24
2022-08-24T13:50:49.014Z,57.41
2022-08-24T13:53:38.005Z,57.81
2022-08-24T13:56:36.734Z,58.13
2022-08-24T13:59:20.783Z,58.53
2022-08-24T14:02:27.874Z,58.79
2022-08-24T14:05:19.322Z,58.71
2022-08-24T14:08:08.415Z,59.07
2022-08-24T14:10:44.404Z,58.43
2022-08-24T14:13:45.297Z,58.99
2022-08-24T14:17:19.675Z,58.04
2022-08-24T14:20:11.238Z,58.93
2022-08-24T14:22:41.338Z,58.16
2022-08-24T14:25:22.574Z,58.48
2022-08-24T14:27:55.633Z,59.22
2022-08-24T14:30:25.350Z,58.50
2022-08-24T14:33:01.286Z,59.07
2022-08-24T14:35:47.194Z,59.65
2022-08-24T14:38:28.450Z,59.19
2022-08-24T14:41:06.866Z,58.55
2022-08-24T14:44:21.715Z,58.18
2022-08-24T14:47:06.939Z,58.19
2022-08-24T14:49:51.802Z,59.57
2022-08-24T14:52:31.086Z,59.30
2022-08-24T14:55:28.246Z,59.05
2022-08-24T14:58:17.512Z,58.81
2022-08-24T15:00:59.924Z,59.28
2022-08-24T15:03:45.997Z,58.76
2022-08-24T15:06:46.333Z,59.35
2022-08-24T15:09:29.364Z,59.25
2022-08-24T15:12:13.760Z,59.67
2022-08-24T15:14:49.271Z,60.57
2022-08-24T15:17:24.065Z,60.75
2022-08-24T15:20:06.052Z,60.92
2022-08-24T15:23:08.593Z,61.53
2022-08-24T15:25:59.700Z,61.25
2022-08-24T15:28:32.382Z,61.17
2022-08-24T15:31:09.313Z,61.46
2022-08-24T15:34:11.774Z,61.88
2022-08-24T15:36:38.980Z,62.10
2022-08-24T15:39:07.037Z,61.72
2022-08-24T15:41:39.265Z,62.67
2022-08-24T15:44:21.434Z,61.79
2022-08-24T15:46:56.457Z,62.46
2022-08-24T15:49:38.173Z,61.76
2022-08-24T15:52:29.941Z,62.23
2022-08-24T15:55:00.415Z,62.42
2022-08-24T15:57:29.854Z,62.58
2022-08-24T16:00:44.434Z,62.84
2022-08-24T16:03:44.295Z,62.74
2022-08-24T16:06:39.016Z,63.13
2022-08-24T16:09:21.127Z,63.42
2022-08-24T16:11:57.415Z,63.40
2022-08-24T16:14:31.343Z,63.40
2022-08-24T16:17:01.918Z,63.27
2022-08-24T16:19:33.983Z,63.31
2022-08-24T16:22:14.149Z,63.78
2022-08-24T16:24:43.355Z,63.72
2022-08-24T16:27:14.499Z,63.74
2022-08-24T16:29:45.782Z,63.85
2022-08-24T16:32:30.522Z,64.34
2022-08-24T16:35:02.213Z,64.25
2022-08-24T16:37:29.859Z,64.15
2022-08-24T16:39:57.054Z,64.09
2022-08-24T16:42:27.288Z,63.67
2022-08-24T16:44:55.688Z,64.32
2022-08-24T16:47:23.807Z,64.34
2022-08-24T16:49:51.919Z,64.42
2022-08-24T16:52:19.944Z,64.52
2022-08-24T16:54:48.295Z,64.74
2022-08-24T16:57:23.204Z,64.92
2022-08-24T16:59:52.199Z,65.13
2022-08-24T17:02:22.210Z,65.24
2022-08-24T17:04:50.352Z,65.45
2022-08-24T17:07:23.350Z,64.85
2022-08-24T17:09:51.008Z,65.03
2022-08-24T17:12:19.146Z,65.44
2022-08-24T17:14:46.575Z,65.58
2022-08-24T17:17:17.271Z,65.86
2022-08-24T17:19:50.666Z,66.13
2022-08-24T17:22:18.245Z,66.38
2022-08-24T17:24:46.117Z,67.51
2022-08-24T17:27:15.016Z,67.81
2022-08-24T17:29:44.770Z,68.00
2022-08-24T17:32:13.403Z,68.39
2022-08-24T17:34:41.186Z,68.62
2022-08-24T17:37:10.915Z,69.50
2022-08-24T17:39:38.464Z,69.92
2022-08-24T17:42:20.933Z,70.07
2022-08-24T17:44:49.320Z,70.43
2022-08-24T17:47:17.903Z,70.81
2022-08-24T17:49:45.146Z,71.27
2022-08-24T17:52:12.475Z,70.11
2022-08-24T17:54:39.887Z,69.83
2022-08-24T17:57:07.536Z,70.99
2022-08-24T17:59:36.643Z,71.08
2022-08-24T18:02:09.241Z,71.65
2022-08-24T18:04:37.662Z,71.86
2022-08-24T18:07:11.818Z,72.56
2022-08-24T18:09:46.360Z,72.39
2022-08-24T18:12:15.246Z,72.98
2022-08-24T18:14:43.569Z,73.08
2022-08-24T18:17:15.701Z,72.31
2022-08-24T18:19:44.339Z,73.23
2022-08-24T18:22:12.165Z,73.17
2022-08-24T18:24:41.262Z,73.10
2022-08-24T18:27:39.109Z,73.73
2022-08-24T18:30:09.356Z,73.30
2022-08-24T18:32:39.972Z,73.38
2022-08-24T18:35:08.099Z,73.68
2022-08-24T18:37:35.348Z,74.05
2022-08-24T18:40:02.714Z,74.21
2022-08-24T18:42:30.447Z,74.13
2022-08-24T18:44:57.770Z,74.09
2022-08-24T18:47:25.599Z,74.33
2022-08-24T18:49:53.006Z,74.47
2022-08-24T18:52:20.629Z,75.27
2022-08-24T18:54:50.246Z,75.73
2022-08-24T18:57:19.029Z,75.37
2022-08-24T18:59:47.043Z,75.82
2022-08-24T19:02:33.370Z,75.79
2022-08-24T19:05:17.679Z,76.54
2022-08-24T19:07:51.479Z,76.47
2022-08-24T19:10:24.493Z,76.60
2022-08-24T19:12:56.704Z,77.09
2022-08-24T19:15:32.410Z,77.37
2022-08-24T19:18:08.699Z,77.81
2022-08-24T19:20:35.875Z,78.24
2022-08-24T19:23:10.109Z,78.67
2022-08-24T19:25:40.251Z,79.15
2022-08-24T19:28:07.450Z,78.98
2022-08-24T19:30:35.641Z,77.96
2022-08-24T19:33:03.693Z,77.50
2022-08-24T19:35:35.019Z,77.21
2022-08-24T19:38:03.285Z,77.12
2022-08-24T19:40:30.682Z,77.71
2022-08-24T19:42:58.016Z,78.45
2022-08-24T19:45:44.809Z,79.11
2022-08-24T19:48:13.398Z,79.00
2022-08-24T19:50:41.582Z,78.61
2022-08-24T19:53:10.553Z,78.16
2022-08-24T19:55:37.791Z,78.22
2022-08-24T19:58:19.254Z,78.14
2022-08-24T20:00:51.735Z,78.02
2022-08-24T20:03:19.336Z,78.36
2022-08-24T20:05:46.507Z,78.31
2022-08-24T20:08:14.441Z,78.47
2022-08-24T20:10:41.731Z,78.66
2022-08-24T20:13:09.660Z,78.76
2022-08-24T20:15:36.869Z,79.06
2022-08-24T20:18:04.481Z,79.12
2022-08-24T20:20:33.012Z,79.32
2022-08-24T20:23:06.533Z,79.55
2022-08-24T20:25:36.357Z,79.70
2022-08-24T20:28:28.125Z,79.79
2022-08-24T20:30:53.478Z,79.86
2022-08-24T20:33:28.187Z,79.99
2022-08-24T20:35:56.602Z,80.12
2022-08-24T20:38:23.983Z,80.39
2022-08-24T20:40:52.399Z,80.76
2022-08-24T20:43:21.078Z,81.16
2022-08-24T20:45:52.036Z,81.41
2022-08-24T20:48:29.179Z,81.96
2022-08-24T20:50:56.834Z,81.83
2022-08-24T20:53:24.068Z,81.77
2022-08-24T20:55:51.471Z,81.81
2022-08-24T20:58:21.431Z,82.19
2022-08-24T21:00:49.679Z,82.43
2022-08-24T21:03:18.965Z,82.62
2022-08-24T21:05:48.748Z,82.97
2022-08-24T21:08:16.099Z,83.15
2022-08-24T21:10:43.665Z,83.44
2022-08-24T21:13:11.403Z,83.63
2022-08-24T21:15:39.611Z,83.64
2022-08-24T21:18:06.962Z,83.77
2022-08-24T21:20:34.710Z,84.03
2022-08-24T21:23:02.006Z,84.22
2022-08-24T21:25:29.536Z,84.40
2022-08-24T21:28:00.682Z,84.95
2022-08-24T21:30:28.142Z,85.14
2022-08-24T21:33:14.340Z,85.28
2022-08-24T21:35:43.107Z,85.19
2022-08-24T21:38:14.108Z,85.26
2022-08-24T21:40:45.140Z,85.11
2022-08-24T21:43:17.821Z,85.16
2022-08-24T21:45:45.515Z,85.10
2022-08-24T21:48:13.318Z,84.86
2022-08-24T21:50:40.548Z,84.81
2022-08-24T21:53:08.079Z,84.60
2022-08-24T21:55:35.778Z,84.76
2022-08-24T21:58:03.169Z,84.69
2022-08-24T22:00:30.434Z,84.80
2022-08-24T22:02:57.712Z,84.70
2022-08-24T22:05:24.888Z,84.81
2022-08-24T22:07:52.082Z,84.68
2022-08-24T22:10:19.392Z,84.74
2022-08-24T22:12:46.514Z,84.88
2022-08-24T22:15:16.212Z,84.86
2022-08-24T22:17:46.321Z,84.74
2022-08-24T22:20:23.012Z,84.81
2022-08-24T22:22:51.701Z,84.69
2022-08-24T22:25:19.179Z,84.62
2022-08-24T22:27:47.255Z,84.49
2022-08-24T22:30:17.264Z,84.76
2022-08-24T22:32:46.472Z,84.63
2022-08-24T22:35:14.543Z,84.54
2022-08-24T22:37:42.178Z,84.68
2022-08-24T22:40:12.748Z,84.90
2022-08-24T22:42:40.573Z,85.21
2022-08-24T22:45:09.798Z,84.99
2022-08-24T22:47:38.099Z,85.29
2022-08-24T22:50:06.332Z,85.62
2022-08-24T22:52:33.770Z,85.72
2022-08-24T22:55:00.832Z,85.81
2022-08-24T22:57:28.226Z,85.74
2022-08-24T22:59:58.225Z,85.91
2022-08-24T23:02:25.420Z,85.96
2022-08-24T23:04:53.454Z,86.11
2022-08-24T23:07:21.329Z,86.46
2022-08-24T23:09:49.176Z,86.55
2022-08-24T23:12:22.630Z,86.57
2022-08-24T23:14:52.138Z,86.52
2022-08-24T23:17:20.478Z,86.84
2022-08-24T23:20:06.390Z,87.12
2022-08-24T23:22:39.883Z,87.16
2022-08-24T23:25:09.427Z,87.44
2022-08-24T23:27:38.664Z,87.61
2022-08-24T23:30:13.034Z,87.76
2022-08-24T23:32:40.943Z,88.15
2022-08-24T23:35:09.096Z,88.58
2022-08-24T23:37:36.276Z,88.58
2022-08-24T23:40:05.023Z,88.28
2022-08-24T23:42:32.177Z,88.75
2022-08-24T23:44:59.571Z,88.60
2022-08-24T23:47:27.077Z,88.52
2022-08-24T23:49:55.638Z,88.72
2022-08-24T23:52:26.506Z,88.62
2022-08-24T23:55:11.612Z,88.73
2022-08-24T23:57:46.595Z,89.01
